sensor_id;sensor_type;location;lat;lon;timestamp;temperature;humidity
42201;DHT22;27869;51.442;7.540;2024-01-16T00:01:16;1.10;99.90
42201;DHT22;27869;51.442;7.540;2024-01-16T00:03:45;1.10;99.90
42201;DHT22;27869;51.442;7.540;2024-01-16T00:06:12;1.10;99.90
42201;DHT22;27869;51.442;7.540;2024-01-16T00:08:39;1.10;99.90
42201;DHT22;27869;51.442;7.540;2024-01-16T00:11:05;1.10;99.90
42201;DHT22;27869;51.442;7.540;2024-01-16T00:13:33;1.10;99.90
42201;DHT22;27869;51.442;7.540;2024-01-16T00:16:01;1.10;99.90
42201;DHT22;27869;51.442;7.540;2024-01-16T00:18:29;1.10;99.90
42201;DHT22;27869;51.442;7.540;2024-01-16T00:20:57;1.20;99.90
42201;DHT22;27869;51.442;7.540;2024-01-16T00:23:26;1.10;99.90
42201;DHT22;27869;51.442;7.540;2024-01-16T00:25:53;1.10;99.90
42201;DHT22;27869;51.442;7.540;2024-01-16T00:28:20;1.10;99.90
42201;DHT22;27869;51.442;7.540;2024-01-16T00:30:47;1.10;99.90
42201;DHT22;27869;51.442;7.540;2024-01-16T00:33:14;1.10;99.90
42201;DHT22;27869;51.442;7.540;2024-01-16T00:35:41;1.00;99.90
42201;DHT22;27869;51.442;7.540;2024-01-16T00:38:09;1.10;99.90
42201;DHT22;27869;51.442;7.540;2024-01-16T00:40:36;1.10;99.90
42201;DHT22;27869;51.442;7.540;2024-01-16T00:43:03;1.10;99.90
42201;DHT22;27869;51.442;7.540;2024-01-16T00:45:30;1.10;99.90
42201;DHT22;27869;51.442;7.540;2024-01-16T00:47:57;1.00;99.90
42201;DHT22;27869;51.442;7.540;2024-01-16T00:50:24;1.00;99.90
42201;DHT22;27869;51.442;7.540;2024-01-16T00:52:52;1.00;99.90
42201;DHT22;27869;51.442;7.540;2024-01-16T00:55:20;1.00;99.90
42201;DHT22;27869;51.442;7.540;2024-01-16T00:57:48;1.00;99.90
42201;DHT22;27869;51.442;7.540;2024-01-16T01:00:15;1.10;99.90
42201;DHT22;27869;51.442;7.540;2024-01-16T01:02:42;1.00;99.90
42201;DHT22;27869;51.442;7.540;2024-01-16T01:05:09;1.10;99.90
42201;DHT22;27869;51.442;7.540;2024-01-16T01:07:36;1.10;99.90
42201;DHT22;27869;51.442;7.540;2024-01-16T01:10:03;1.10;99.90
42201;DHT22;27869;51.442;7.540;2024-01-16T01:12:32;1.10;99.90
42201;DHT22;27869;51.442;7.540;2024-01-16T01:14:59;1.10;99.90
42201;DHT22;27869;51.442;7.540;2024-01-16T01:17:26;1.10;99.90
42201;DHT22;27869;51.442;7.540;2024-01-16T01:19:53;1.10;99.90
42201;DHT22;27869;51.442;7.540;2024-01-16T01:22:19;1.10;99.90
42201;DHT22;27869;51.442;7.540;2024-01-16T01:24:47;1.10;99.90
42201;DHT22;27869;51.442;7.540;2024-01-16T01:27:14;1.00;99.90
42201;DHT22;27869;51.442;7.540;2024-01-16T01:29:42;1.00;99.90
42201;DHT22;27869;51.442;7.540;2024-01-16T01:32:09;1.00;99.90
42201;DHT22;27869;51.442;7.540;2024-01-16T01:34:36;1.00;99.90
42201;DHT22;27869;51.442;7.540;2024-01-16T01:37:04;1.00;99.90
42201;DHT22;27869;51.442;7.540;2024-01-16T01:39:30;1.00;99.90
42201;DHT22;27869;51.442;7.540;2024-01-16T01:41:57;1.00;99.90
42201;DHT22;27869;51.442;7.540;2024-01-16T01:44:24;1.00;99.90
42201;DHT22;27869;51.442;7.540;2024-01-16T01:46:54;1.00;99.90
42201;DHT22;27869;51.442;7.540;2024-01-16T01:49:23;1.00;99.90
42201;DHT22;27869;51.442;7.540;2024-01-16T01:51:50;0.90;99.90
42201;DHT22;27869;51.442;7.540;2024-01-16T01:54:17;1.00;99.90
42201;DHT22;27869;51.442;7.540;2024-01-16T01:56:47;1.00;99.90
42201;DHT22;27869;51.442;7.540;2024-01-16T01:59:14;1.00;99.90
42201;DHT22;27869;51.442;7.540;2024-01-16T02:01:45;1.00;99.90
42201;DHT22;27869;51.442;7.540;2024-01-16T02:04:14;1.00;99.90
42201;DHT22;27869;51.442;7.540;2024-01-16T02:06:41;1.00;99.90
42201;DHT22;27869;51.442;7.540;2024-01-16T02:09:10;1.00;99.90
42201;DHT22;27869;51.442;7.540;2024-01-16T02:11:38;1.00;99.90
42201;DHT22;27869;51.442;7.540;2024-01-16T02:14:05;0.90;99.90
42201;DHT22;27869;51.442;7.540;2024-01-16T02:16:36;0.90;99.90
42201;DHT22;27869;51.442;7.540;2024-01-16T02:19:04;0.90;99.90
42201;DHT22;27869;51.442;7.540;2024-01-16T02:21:36;0.90;99.90
42201;DHT22;27869;51.442;7.540;2024-01-16T02:24:05;0.90;99.90
42201;DHT22;27869;51.442;7.540;2024-01-16T02:26:33;0.90;99.90
42201;DHT22;27869;51.442;7.540;2024-01-16T02:29:01;0.90;99.90
42201;DHT22;27869;51.442;7.540;2024-01-16T02:31:29;0.90;99.90
42201;DHT22;27869;51.442;7.540;2024-01-16T02:33:56;0.90;99.90
42201;DHT22;27869;51.442;7.540;2024-01-16T02:36:23;0.90;99.90
42201;DHT22;27869;51.442;7.540;2024-01-16T02:38:50;0.90;99.90
42201;DHT22;27869;51.442;7.540;2024-01-16T02:41:19;0.90;99.90
42201;DHT22;27869;51.442;7.540;2024-01-16T02:43:46;0.90;99.90
42201;DHT22;27869;51.442;7.540;2024-01-16T02:46:13;0.90;99.90
42201;DHT22;27869;51.442;7.540;2024-01-16T02:48:41;0.90;99.90
42201;DHT22;27869;51.442;7.540;2024-01-16T02:51:08;0.90;99.90
42201;DHT22;27869;51.442;7.540;2024-01-16T02:53:35;0.90;99.90
42201;DHT22;27869;51.442;7.540;2024-01-16T02:56:02;0.90;99.90
42201;DHT22;27869;51.442;7.540;2024-01-16T02:58:30;0.90;99.90
42201;DHT22;27869;51.442;7.540;2024-01-16T03:00:57;0.90;99.90
42201;DHT22;27869;51.442;7.540;2024-01-16T03:03:24;1.00;99.90
42201;DHT22;27869;51.442;7.540;2024-01-16T03:05:51;1.00;99.90
42201;DHT22;27869;51.442;7.540;2024-01-16T03:08:18;0.90;99.90
42201;DHT22;27869;51.442;7.540;2024-01-16T03:10:45;1.00;99.90
42201;DHT22;27869;51.442;7.540;2024-01-16T03:13:12;1.00;99.90
42201;DHT22;27869;51.442;7.540;2024-01-16T03:15:40;0.90;99.90
42201;DHT22;27869;51.442;7.540;2024-01-16T03:18:07;1.00;99.90
42201;DHT22;27869;51.442;7.540;2024-01-16T03:20:34;0.90;99.90
42201;DHT22;27869;51.442;7.540;2024-01-16T03:23:01;1.00;99.90
42201;DHT22;27869;51.442;7.540;2024-01-16T03:25:29;0.90;99.90
42201;DHT22;27869;51.442;7.540;2024-01-16T03:27:55;0.90;99.90
42201;DHT22;27869;51.442;7.540;2024-01-16T03:30:22;0.90;99.90
42201;DHT22;27869;51.442;7.540;2024-01-16T03:32:50;1.00;99.90
42201;DHT22;27869;51.442;7.540;2024-01-16T03:35:17;1.00;99.90
42201;DHT22;27869;51.442;7.540;2024-01-16T03:37:44;1.00;99.90
42201;DHT22;27869;51.442;7.540;2024-01-16T03:40:11;1.00;99.90
42201;DHT22;27869;51.442;7.540;2024-01-16T03:42:38;1.00;99.90
42201;DHT22;27869;51.442;7.540;2024-01-16T03:45:06;1.00;99.90
42201;DHT22;27869;51.442;7.540;2024-01-16T03:47:34;1.00;99.90
42201;DHT22;27869;51.442;7.540;2024-01-16T03:50:02;1.00;99.90
42201;DHT22;27869;51.442;7.540;2024-01-16T03:52:29;1.10;99.90
42201;DHT22;27869;51.442;7.540;2024-01-16T03:54:56;1.00;99.90
42201;DHT22;27869;51.442;7.540;2024-01-16T03:57:23;1.00;99.90
42201;DHT22;27869;51.442;7.540;2024-01-16T03:59:50;1.00;99.90
42201;DHT22;27869;51.442;7.540;2024-01-16T04:02:17;1.00;99.90
42201;DHT22;27869;51.442;7.540;2024-01-16T04:04:44;1.00;99.90
42201;DHT22;27869;51.442;7.540;2024-01-16T04:07:12;1.00;99.90
42201;DHT22;27869;51.442;7.540;2024-01-16T04:09:39;1.10;99.90
42201;DHT22;27869;51.442;7.540;2024-01-16T04:12:06;1.00;99.90
42201;DHT22;27869;51.442;7.540;2024-01-16T04:14:33;1.10;99.90
42201;DHT22;27869;51.442;7.540;2024-01-16T04:17:01;1.00;99.90
42201;DHT22;27869;51.442;7.540;2024-01-16T04:19:28;1.10;99.90
42201;DHT22;27869;51.442;7.540;2024-01-16T04:21:59;1.10;99.90
42201;DHT22;27869;51.442;7.540;2024-01-16T04:24:27;1.10;99.90
42201;DHT22;27869;51.442;7.540;2024-01-16T04:26:54;1.10;99.90
42201;DHT22;27869;51.442;7.540;2024-01-16T04:29:21;1.10;99.90
42201;DHT22;27869;51.442;7.540;2024-01-16T04:31:48;1.10;99.90
42201;DHT22;27869;51.442;7.540;2024-01-16T04:34:15;1.10;99.90
42201;DHT22;27869;51.442;7.540;2024-01-16T04:36:42;1.10;99.90
42201;DHT22;27869;51.442;7.540;2024-01-16T04:39:09;1.10;99.90
42201;DHT22;27869;51.442;7.540;2024-01-16T04:41:37;1.10;99.90
42201;DHT22;27869;51.442;7.540;2024-01-16T04:44:04;1.10;99.90
42201;DHT22;27869;51.442;7.540;2024-01-16T04:46:31;1.10;99.90
42201;DHT22;27869;51.442;7.540;2024-01-16T04:48:58;1.10;99.90
42201;DHT22;27869;51.442;7.540;2024-01-16T04:51:25;1.10;99.90
42201;DHT22;27869;51.442;7.540;2024-01-16T04:53:52;1.10;99.90
42201;DHT22;27869;51.442;7.540;2024-01-16T04:56:19;1.20;99.90
42201;DHT22;27869;51.442;7.540;2024-01-16T04:58:47;1.10;99.90
42201;DHT22;27869;51.442;7.540;2024-01-16T05:01:14;1.20;99.90
42201;DHT22;27869;51.442;7.540;2024-01-16T05:03:41;1.10;99.90
42201;DHT22;27869;51.442;7.540;2024-01-16T05:06:12;1.10;99.90
42201;DHT22;27869;51.442;7.540;2024-01-16T05:08:40;1.10;99.90
42201;DHT22;27869;51.442;7.540;2024-01-16T05:11:07;1.10;99.90
42201;DHT22;27869;51.442;7.540;2024-01-16T05:13:34;1.10;99.90
42201;DHT22;27869;51.442;7.540;2024-01-16T05:16:02;1.10;99.90
42201;DHT22;27869;51.442;7.540;2024-01-16T05:18:29;1.10;99.90
42201;DHT22;27869;51.442;7.540;2024-01-16T05:20:58;1.10;99.90
42201;DHT22;27869;51.442;7.540;2024-01-16T05:23:25;1.10;99.90
42201;DHT22;27869;51.442;7.540;2024-01-16T05:25:52;1.10;99.90
42201;DHT22;27869;51.442;7.540;2024-01-16T05:28:18;1.10;99.90
42201;DHT22;27869;51.442;7.540;2024-01-16T05:30:45;1.10;99.90
42201;DHT22;27869;51.442;7.540;2024-01-16T05:33:13;1.10;99.90
42201;DHT22;27869;51.442;7.540;2024-01-16T05:35:41;1.10;99.90
42201;DHT22;27869;51.442;7.540;2024-01-16T05:38:08;1.20;99.90
42201;DHT22;27869;51.442;7.540;2024-01-16T05:40:37;1.20;99.90
42201;DHT22;27869;51.442;7.540;2024-01-16T05:43:04;1.20;99.90
42201;DHT22;27869;51.442;7.540;2024-01-16T05:45:31;1.10;99.90
42201;DHT22;27869;51.442;7.540;2024-01-16T05:47:58;1.10;99.90
42201;DHT22;27869;51.442;7.540;2024-01-16T05:50:26;1.10;99.90
42201;DHT22;27869;51.442;7.540;2024-01-16T05:52:53;1.10;99.90
42201;DHT22;27869;51.442;7.540;2024-01-16T05:55:20;1.10;99.90
42201;DHT22;27869;51.442;7.540;2024-01-16T05:57:48;1.10;99.90
42201;DHT22;27869;51.442;7.540;2024-01-16T06:00:15;1.10;99.90
42201;DHT22;27869;51.442;7.540;2024-01-16T06:02:43;1.10;99.90
42201;DHT22;27869;51.442;7.540;2024-01-16T06:05:10;1.10;99.90
42201;DHT22;27869;51.442;7.540;2024-01-16T06:07:38;1.10;99.90
42201;DHT22;27869;51.442;7.540;2024-01-16T06:10:07;1.20;99.90
42201;DHT22;27869;51.442;7.540;2024-01-16T06:12:35;1.20;99.90
42201;DHT22;27869;51.442;7.540;2024-01-16T06:15:03;1.20;99.90
42201;DHT22;27869;51.442;7.540;2024-01-16T06:17:30;1.20;99.90
42201;DHT22;27869;51.442;7.540;2024-01-16T06:19:57;1.20;99.90
42201;DHT22;27869;51.442;7.540;2024-01-16T06:22:24;1.20;99.90
42201;DHT22;27869;51.442;7.540;2024-01-16T06:24:52;1.20;99.90
42201;DHT22;27869;51.442;7.540;2024-01-16T06:27:19;1.20;99.90
42201;DHT22;27869;51.442;7.540;2024-01-16T06:29:46;1.20;99.90
42201;DHT22;27869;51.442;7.540;2024-01-16T06:32:13;1.20;99.90
42201;DHT22;27869;51.442;7.540;2024-01-16T06:34:40;1.20;99.90
42201;DHT22;27869;51.442;7.540;2024-01-16T06:37:07;1.20;99.90
42201;DHT22;27869;51.442;7.540;2024-01-16T06:39:35;1.20;99.90
42201;DHT22;27869;51.442;7.540;2024-01-16T06:42:04;1.20;99.90
42201;DHT22;27869;51.442;7.540;2024-01-16T06:44:31;1.20;99.90
42201;DHT22;27869;51.442;7.540;2024-01-16T06:46:57;1.10;99.90
42201;DHT22;27869;51.442;7.540;2024-01-16T06:49:24;1.10;99.90
42201;DHT22;27869;51.442;7.540;2024-01-16T06:51:52;1.20;99.90
42201;DHT22;27869;51.442;7.540;2024-01-16T06:54:19;1.10;99.90
42201;DHT22;27869;51.442;7.540;2024-01-16T06:56:49;1.10;99.90
42201;DHT22;27869;51.442;7.540;2024-01-16T06:59:17;1.10;99.90
42201;DHT22;27869;51.442;7.540;2024-01-16T07:01:47;1.10;99.90
42201;DHT22;27869;51.442;7.540;2024-01-16T07:04:14;1.10;99.90
42201;DHT22;27869;51.442;7.540;2024-01-16T07:06:41;1.10;99.90
42201;DHT22;27869;51.442;7.540;2024-01-16T07:09:09;1.10;99.90
42201;DHT22;27869;51.442;7.540;2024-01-16T07:11:36;1.10;99.90
42201;DHT22;27869;51.442;7.540;2024-01-16T07:14:06;1.10;99.90
42201;DHT22;27869;51.442;7.540;2024-01-16T07:16:35;1.10;99.90
42201;DHT22;27869;51.442;7.540;2024-01-16T07:19:02;1.00;99.90
42201;DHT22;27869;51.442;7.540;2024-01-16T07:21:29;1.00;99.90
42201;DHT22;27869;51.442;7.540;2024-01-16T07:23:56;1.00;99.90
42201;DHT22;27869;51.442;7.540;2024-01-16T07:26:23;1.00;99.90
42201;DHT22;27869;51.442;7.540;2024-01-16T07:28:50;1.00;99.90
42201;DHT22;27869;51.442;7.540;2024-01-16T07:31:17;1.00;99.90
42201;DHT22;27869;51.442;7.540;2024-01-16T07:33:45;1.00;99.90
42201;DHT22;27869;51.442;7.540;2024-01-16T07:36:13;1.00;99.90
42201;DHT22;27869;51.442;7.540;2024-01-16T07:38:40;1.00;99.90
42201;DHT22;27869;51.442;7.540;2024-01-16T07:41:07;1.00;99.90
42201;DHT22;27869;51.442;7.540;2024-01-16T07:43:34;1.00;99.90
42201;DHT22;27869;51.442;7.540;2024-01-16T07:46:01;1.00;99.90
42201;DHT22;27869;51.442;7.540;2024-01-16T07:48:29;1.10;99.90
42201;DHT22;27869;51.442;7.540;2024-01-16T07:50:57;1.10;99.90
42201;DHT22;27869;51.442;7.540;2024-01-16T07:53:24;1.10;99.90
42201;DHT22;27869;51.442;7.540;2024-01-16T07:55:53;1.10;99.90
42201;DHT22;27869;51.442;7.540;2024-01-16T07:58:20;1.10;99.90
42201;DHT22;27869;51.442;7.540;2024-01-16T08:00:47;1.10;99.90
42201;DHT22;27869;51.442;7.540;2024-01-16T08:03:15;1.10;99.90
42201;DHT22;27869;51.442;7.540;2024-01-16T08:05:42;1.10;99.90
42201;DHT22;27869;51.442;7.540;2024-01-16T08:08:10;1.10;99.90
42201;DHT22;27869;51.442;7.540;2024-01-16T08:10:37;1.10;99.90
42201;DHT22;27869;51.442;7.540;2024-01-16T08:13:04;1.10;99.90
42201;DHT22;27869;51.442;7.540;2024-01-16T08:15:31;1.10;99.90
42201;DHT22;27869;51.442;7.540;2024-01-16T08:17:58;1.10;99.90
42201;DHT22;27869;51.442;7.540;2024-01-16T08:20:25;1.10;99.90
42201;DHT22;27869;51.442;7.540;2024-01-16T08:22:52;1.10;99.90
42201;DHT22;27869;51.442;7.540;2024-01-16T08:25:21;1.10;99.90
42201;DHT22;27869;51.442;7.540;2024-01-16T08:27:48;1.10;99.90
42201;DHT22;27869;51.442;7.540;2024-01-16T08:30:15;1.10;99.90
42201;DHT22;27869;51.442;7.540;2024-01-16T08:32:42;1.00;99.90
42201;DHT22;27869;51.442;7.540;2024-01-16T08:35:09;1.00;99.90
42201;DHT22;27869;51.442;7.540;2024-01-16T08:37:36;1.10;99.90
42201;DHT22;27869;51.442;7.540;2024-01-16T08:40:03;1.00;99.90
42201;DHT22;27869;51.442;7.540;2024-01-16T08:42:32;1.10;99.90
42201;DHT22;27869;51.442;7.540;2024-01-16T08:44:59;1.00;99.90
42201;DHT22;27869;51.442;7.540;2024-01-16T08:47:27;1.00;99.90
42201;DHT22;27869;51.442;7.540;2024-01-16T08:49:54;1.10;99.90
42201;DHT22;27869;51.442;7.540;2024-01-16T08:52:21;1.00;99.90
42201;DHT22;27869;51.442;7.540;2024-01-16T08:54:48;1.00;99.90
42201;DHT22;27869;51.442;7.540;2024-01-16T08:57:15;1.10;99.90
42201;DHT22;27869;51.442;7.540;2024-01-16T08:59:43;1.10;99.90
42201;DHT22;27869;51.442;7.540;2024-01-16T09:02:10;1.10;99.90
42201;DHT22;27869;51.442;7.540;2024-01-16T09:04:37;1.10;99.90
42201;DHT22;27869;51.442;7.540;2024-01-16T09:07:04;1.10;99.90
42201;DHT22;27869;51.442;7.540;2024-01-16T09:09:31;1.10;99.90
42201;DHT22;27869;51.442;7.540;2024-01-16T09:11:58;1.10;99.90
42201;DHT22;27869;51.442;7.540;2024-01-16T09:14:25;1.10;99.90
42201;DHT22;27869;51.442;7.540;2024-01-16T09:16:54;1.10;99.90
42201;DHT22;27869;51.442;7.540;2024-01-16T09:19:21;1.10;99.90
42201;DHT22;27869;51.442;7.540;2024-01-16T09:21:47;1.10;99.90
42201;DHT22;27869;51.442;7.540;2024-01-16T09:24:14;1.10;99.90
42201;DHT22;27869;51.442;7.540;2024-01-16T09:26:41;1.10;99.90
42201;DHT22;27869;51.442;7.540;2024-01-16T09:29:09;1.10;99.90
42201;DHT22;27869;51.442;7.540;2024-01-16T09:31:36;1.20;99.90
42201;DHT22;27869;51.442;7.540;2024-01-16T09:34:05;1.20;99.90
42201;DHT22;27869;51.442;7.540;2024-01-16T09:36:32;1.20;99.90
42201;DHT22;27869;51.442;7.540;2024-01-16T09:39:01;1.20;99.90
42201;DHT22;27869;51.442;7.540;2024-01-16T09:41:28;1.20;99.90
42201;DHT22;27869;51.442;7.540;2024-01-16T09:43:58;1.20;99.90
42201;DHT22;27869;51.442;7.540;2024-01-16T09:46:26;1.20;99.90
42201;DHT22;27869;51.442;7.540;2024-01-16T09:48:54;1.20;99.90
42201;DHT22;27869;51.442;7.540;2024-01-16T09:51:23;1.20;99.90
42201;DHT22;27869;51.442;7.540;2024-01-16T09:53:50;1.30;99.90
42201;DHT22;27869;51.442;7.540;2024-01-16T09:56:21;1.30;99.90
42201;DHT22;27869;51.442;7.540;2024-01-16T09:58:52;1.20;99.90
42201;DHT22;27869;51.442;7.540;2024-01-16T10:01:21;1.20;99.90
42201;DHT22;27869;51.442;7.540;2024-01-16T10:03:49;1.30;99.90
42201;DHT22;27869;51.442;7.540;2024-01-16T10:06:17;1.30;99.90
42201;DHT22;27869;51.442;7.540;2024-01-16T10:08:47;1.30;99.90
42201;DHT22;27869;51.442;7.540;2024-01-16T10:11:14;1.30;99.90
42201;DHT22;27869;51.442;7.540;2024-01-16T10:13:41;1.30;99.90
42201;DHT22;27869;51.442;7.540;2024-01-16T10:16:08;1.20;99.90
42201;DHT22;27869;51.442;7.540;2024-01-16T10:18:34;1.30;99.90
42201;DHT22;27869;51.442;7.540;2024-01-16T10:21:03;1.20;99.90
42201;DHT22;27869;51.442;7.540;2024-01-16T10:23:31;1.30;99.90
42201;DHT22;27869;51.442;7.540;2024-01-16T10:26:07;1.30;99.90
42201;DHT22;27869;51.442;7.540;2024-01-16T10:28:34;1.30;99.90
42201;DHT22;27869;51.442;7.540;2024-01-16T10:31:02;1.30;99.90
42201;DHT22;27869;51.442;7.540;2024-01-16T10:33:29;1.30;99.90
42201;DHT22;27869;51.442;7.540;2024-01-16T10:36:08;1.30;99.90
42201;DHT22;27869;51.442;7.540;2024-01-16T10:38:36;1.30;99.90
42201;DHT22;27869;51.442;7.540;2024-01-16T10:41:12;1.30;99.90
42201;DHT22;27869;51.442;7.540;2024-01-16T10:43:39;1.30;99.90
42201;DHT22;27869;51.442;7.540;2024-01-16T10:46:14;1.30;99.90
42201;DHT22;27869;51.442;7.540;2024-01-16T10:48:42;1.30;99.90
42201;DHT22;27869;51.442;7.540;2024-01-16T10:51:10;1.40;99.90
42201;DHT22;27869;51.442;7.540;2024-01-16T10:53:41;1.40;99.90
42201;DHT22;27869;51.442;7.540;2024-01-16T10:56:11;1.40;99.90
42201;DHT22;27869;51.442;7.540;2024-01-16T10:58:40;1.40;99.90
42201;DHT22;27869;51.442;7.540;2024-01-16T11:01:09;1.40;99.90
42201;DHT22;27869;51.442;7.540;2024-01-16T11:03:40;1.40;99.90
42201;DHT22;27869;51.442;7.540;2024-01-16T11:06:10;1.50;99.90
42201;DHT22;27869;51.442;7.540;2024-01-16T11:08:39;1.50;99.90
42201;DHT22;27869;51.442;7.540;2024-01-16T11:11:07;1.50;99.90
42201;DHT22;27869;51.442;7.540;2024-01-16T11:13:36;1.50;99.90
42201;DHT22;27869;51.442;7.540;2024-01-16T11:16:04;1.50;99.90
42201;DHT22;27869;51.442;7.540;2024-01-16T11:18:33;1.50;99.90
42201;DHT22;27869;51.442;7.540;2024-01-16T11:21:01;1.50;99.90
42201;DHT22;27869;51.442;7.540;2024-01-16T11:23:29;1.50;99.90
42201;DHT22;27869;51.442;7.540;2024-01-16T11:25:56;1.50;99.90
42201;DHT22;27869;51.442;7.540;2024-01-16T11:28:27;1.50;99.90
42201;DHT22;27869;51.442;7.540;2024-01-16T11:30:57;1.60;99.90
42201;DHT22;27869;51.442;7.540;2024-01-16T11:33:43;1.50;99.90
42201;DHT22;27869;51.442;7.540;2024-01-16T11:39:17;1.50;99.90
42201;DHT22;27869;51.442;7.540;2024-01-16T11:41:50;1.50;99.90
42201;DHT22;27869;51.442;7.540;2024-01-16T11:44:40;1.40;99.90
42201;DHT22;27869;51.442;7.540;2024-01-16T11:47:08;1.50;99.90
42201;DHT22;27869;51.442;7.540;2024-01-16T11:49:36;1.50;99.90
42201;DHT22;27869;51.442;7.540;2024-01-16T11:52:03;1.50;99.90
42201;DHT22;27869;51.442;7.540;2024-01-16T11:54:30;1.50;99.90
42201;DHT22;27869;51.442;7.540;2024-01-16T11:57:25;1.40;99.90
42201;DHT22;27869;51.442;7.540;2024-01-16T12:00:00;1.50;99.90
42201;DHT22;27869;51.442;7.540;2024-01-16T12:02:43;1.50;99.90
42201;DHT22;27869;51.442;7.540;2024-01-16T12:05:12;1.50;99.90
42201;DHT22;27869;51.442;7.540;2024-01-16T12:07:44;1.50;99.90
42201;DHT22;27869;51.442;7.540;2024-01-16T12:10:12;1.50;99.90
42201;DHT22;27869;51.442;7.540;2024-01-16T12:12:40;1.50;99.90
42201;DHT22;27869;51.442;7.540;2024-01-16T12:15:12;1.50;99.90
42201;DHT22;27869;51.442;7.540;2024-01-16T12:17:52;1.50;99.90
42201;DHT22;27869;51.442;7.540;2024-01-16T12:20:20;1.50;99.90
42201;DHT22;27869;51.442;7.540;2024-01-16T12:22:53;1.50;99.90
42201;DHT22;27869;51.442;7.540;2024-01-16T12:25:20;1.50;99.90
42201;DHT22;27869;51.442;7.540;2024-01-16T12:27:57;1.50;99.90
42201;DHT22;27869;51.442;7.540;2024-01-16T12:30:25;1.50;99.90
42201;DHT22;27869;51.442;7.540;2024-01-16T12:33:04;1.50;99.90
42201;DHT22;27869;51.442;7.540;2024-01-16T12:35:33;1.40;99.90
42201;DHT22;27869;51.442;7.540;2024-01-16T12:38:01;1.50;99.90
42201;DHT22;27869;51.442;7.540;2024-01-16T12:40:28;1.50;99.90
42201;DHT22;27869;51.442;7.540;2024-01-16T12:42:55;1.50;99.90
42201;DHT22;27869;51.442;7.540;2024-01-16T12:45:23;1.50;99.90
42201;DHT22;27869;51.442;7.540;2024-01-16T12:47:53;1.50;99.90
42201;DHT22;27869;51.442;7.540;2024-01-16T12:50:26;1.50;99.90
42201;DHT22;27869;51.442;7.540;2024-01-16T12:53:01;1.50;99.90
42201;DHT22;27869;51.442;7.540;2024-01-16T12:55:29;1.50;99.90
42201;DHT22;27869;51.442;7.540;2024-01-16T12:58:14;1.50;99.90
42201;DHT22;27869;51.442;7.540;2024-01-16T13:00:41;1.60;99.90
42201;DHT22;27869;51.442;7.540;2024-01-16T13:03:14;1.60;99.90
42201;DHT22;27869;51.442;7.540;2024-01-16T13:05:44;1.60;99.90
42201;DHT22;27869;51.442;7.540;2024-01-16T13:08:17;1.60;99.90
42201;DHT22;27869;51.442;7.540;2024-01-16T13:10:46;1.60;99.90
42201;DHT22;27869;51.442;7.540;2024-01-16T13:13:14;1.70;99.90
42201;DHT22;27869;51.442;7.540;2024-01-16T13:15:42;1.70;99.90
42201;DHT22;27869;51.442;7.540;2024-01-16T13:18:19;1.70;99.90
42201;DHT22;27869;51.442;7.540;2024-01-16T13:20:49;1.80;99.90
42201;DHT22;27869;51.442;7.540;2024-01-16T13:23:16;1.90;99.90
42201;DHT22;27869;51.442;7.540;2024-01-16T13:25:44;1.90;99.90
42201;DHT22;27869;51.442;7.540;2024-01-16T13:28:11;1.90;99.90
42201;DHT22;27869;51.442;7.540;2024-01-16T13:30:39;2.00;99.90
42201;DHT22;27869;51.442;7.540;2024-01-16T13:33:06;2.00;99.90
42201;DHT22;27869;51.442;7.540;2024-01-16T13:35:34;2.00;99.90
42201;DHT22;27869;51.442;7.540;2024-01-16T13:38:04;2.00;99.90
42201;DHT22;27869;51.442;7.540;2024-01-16T13:40:31;2.00;99.90
42201;DHT22;27869;51.442;7.540;2024-01-16T13:42:59;2.10;99.90
42201;DHT22;27869;51.442;7.540;2024-01-16T13:45:26;2.00;99.90
42201;DHT22;27869;51.442;7.540;2024-01-16T13:47:53;2.10;99.90
42201;DHT22;27869;51.442;7.540;2024-01-16T13:50:21;2.10;99.90
42201;DHT22;27869;51.442;7.540;2024-01-16T13:52:48;2.10;99.90
42201;DHT22;27869;51.442;7.540;2024-01-16T13:55:17;2.10;99.90
42201;DHT22;27869;51.442;7.540;2024-01-16T13:57:44;2.10;99.90
42201;DHT22;27869;51.442;7.540;2024-01-16T14:00:13;2.10;99.90
42201;DHT22;27869;51.442;7.540;2024-01-16T14:02:40;2.10;99.90
42201;DHT22;27869;51.442;7.540;2024-01-16T14:05:08;2.10;99.90
42201;DHT22;27869;51.442;7.540;2024-01-16T14:07:36;2.00;99.90
42201;DHT22;27869;51.442;7.540;2024-01-16T14:10:05;2.00;99.90
42201;DHT22;27869;51.442;7.540;2024-01-16T14:12:34;2.00;99.90
42201;DHT22;27869;51.442;7.540;2024-01-16T14:15:03;1.90;99.90
42201;DHT22;27869;51.442;7.540;2024-01-16T14:17:34;1.90;99.90
42201;DHT22;27869;51.442;7.540;2024-01-16T14:20:02;1.90;99.90
42201;DHT22;27869;51.442;7.540;2024-01-16T14:22:31;1.90;99.90
42201;DHT22;27869;51.442;7.540;2024-01-16T14:24:57;1.90;99.90
42201;DHT22;27869;51.442;7.540;2024-01-16T14:27:24;2.00;99.90
42201;DHT22;27869;51.442;7.540;2024-01-16T14:29:52;2.00;99.90
42201;DHT22;27869;51.442;7.540;2024-01-16T14:32:19;2.00;99.90
42201;DHT22;27869;51.442;7.540;2024-01-16T14:34:46;2.00;99.90
42201;DHT22;27869;51.442;7.540;2024-01-16T14:37:13;2.00;99.90
42201;DHT22;27869;51.442;7.540;2024-01-16T14:39:42;2.00;99.90
42201;DHT22;27869;51.442;7.540;2024-01-16T14:42:09;2.00;99.90
42201;DHT22;27869;51.442;7.540;2024-01-16T14:44:36;1.90;99.90
42201;DHT22;27869;51.442;7.540;2024-01-16T14:47:05;1.90;99.90
42201;DHT22;27869;51.442;7.540;2024-01-16T14:49:34;1.80;99.90
42201;DHT22;27869;51.442;7.540;2024-01-16T14:52:01;1.80;99.90
42201;DHT22;27869;51.442;7.540;2024-01-16T14:54:28;1.70;99.90
42201;DHT22;27869;51.442;7.540;2024-01-16T14:56:54;1.70;99.90
42201;DHT22;27869;51.442;7.540;2024-01-16T14:59:21;1.70;99.90
42201;DHT22;27869;51.442;7.540;2024-01-16T15:01:48;1.60;99.90
42201;DHT22;27869;51.442;7.540;2024-01-16T15:04:18;1.60;99.90
42201;DHT22;27869;51.442;7.540;2024-01-16T15:06:45;1.60;99.90
42201;DHT22;27869;51.442;7.540;2024-01-16T15:09:12;1.60;99.90
42201;DHT22;27869;51.442;7.540;2024-01-16T15:11:39;1.50;99.90
42201;DHT22;27869;51.442;7.540;2024-01-16T15:14:06;1.50;99.90
42201;DHT22;27869;51.442;7.540;2024-01-16T15:16:33;1.50;99.90
42201;DHT22;27869;51.442;7.540;2024-01-16T15:19:00;1.40;99.90
42201;DHT22;27869;51.442;7.540;2024-01-16T15:21:29;1.40;99.90
42201;DHT22;27869;51.442;7.540;2024-01-16T15:23:56;1.40;99.90
42201;DHT22;27869;51.442;7.540;2024-01-16T15:26:23;1.40;99.90
42201;DHT22;27869;51.442;7.540;2024-01-16T15:28:51;1.30;99.90
42201;DHT22;27869;51.442;7.540;2024-01-16T15:31:18;1.30;99.90
42201;DHT22;27869;51.442;7.540;2024-01-16T15:33:46;1.30;99.90
42201;DHT22;27869;51.442;7.540;2024-01-16T15:36:13;1.30;99.90
42201;DHT22;27869;51.442;7.540;2024-01-16T15:38:42;1.30;99.90
42201;DHT22;27869;51.442;7.540;2024-01-16T15:41:08;1.30;99.90
42201;DHT22;27869;51.442;7.540;2024-01-16T15:43:35;1.20;99.90
42201;DHT22;27869;51.442;7.540;2024-01-16T15:46:02;1.20;99.90
42201;DHT22;27869;51.442;7.540;2024-01-16T15:48:29;1.20;99.90
42201;DHT22;27869;51.442;7.540;2024-01-16T15:50:59;1.20;99.90
42201;DHT22;27869;51.442;7.540;2024-01-16T15:53:26;1.20;99.90